»·PEaware :: N523MB KCRQ-KSNA

N523MB :: KCRQ-KSNA

FLIGHT INFORMATION

Flight Status: Arrived
Operator: Privately registered:
United States
More flights under this callsign
Pilot: Marcus B. (1617)
Aircraft: CESSNA 172 SKYHAWK
(C172)
More flights by this aircraft type
Origin: KCRQ McClellan-Palomar
United States
Destination: KSNA John Wayne-Orange Co
United States
More flights between these airports :: More routes between these airports
Route: +OCN V23 SLI
File this flight plan on PilotEdge
Remarks:
Altitude:
(Current/Filed)
0ft
Speed:
(Current/Filed)
0kts
Departed: 03-Dec-19 08:25 AM
Arrived: 03-Dec-19 09:05 AM
Distance/Time
Traveled:
44nm/0:40
Distance/Time
To Go:
Arrived

Flight Plot

Page will automatically refresh every two minutes.


Map Options




Map Legend


Flown Route
Filed Route
Departure Airport
Arrival Airport
Navaid (VOR, NDB)
Fix

Horizontal Profiles

Position Reports

Time Latitude Longitude Heading Altitude Ground
Speed
03-Dec-19 08:17 33.127241 -117.274465 251 298ft 0kts
03-Dec-19 08:18 33.127241 -117.274465 251 298ft 0kts
03-Dec-19 08:19 33.127241 -117.274465 251 298ft 0kts
03-Dec-19 08:20 33.127241 -117.274465 251 298ft 0kts
03-Dec-19 08:21 33.127942 -117.274763 343 298ft 8kts
03-Dec-19 08:23 33.128638 -117.272831 22 298ft 0kts
03-Dec-19 08:24 33.128638 -117.272831 22 298ft 0kts
03-Dec-19 08:25 33.128920 -117.276001 259 299ft 68kts
03-Dec-19 08:26 33.125810 -117.302122 260 912ft 79kts
03-Dec-19 08:27 33.122310 -117.328319 261 1536ft 81kts
03-Dec-19 08:28 33.120159 -117.354861 300 2133ft 80kts
03-Dec-19 08:29 33.139308 -117.366806 338 2750ft 76kts
03-Dec-19 08:30 33.158825 -117.376516 338 3321ft 76kts
03-Dec-19 08:31 33.178495 -117.386363 338 3859ft 77kts
03-Dec-19 08:32 33.198226 -117.396281 337 4386ft 76kts
03-Dec-19 08:33 33.217597 -117.406034 339 4924ft 76kts
03-Dec-19 08:34 33.237508 -117.415132 339 5423ft 79kts
03-Dec-19 08:35 33.253904 -117.433089 315 5913ft 80kts
03-Dec-19 08:36 33.273081 -117.455557 316 6020ft 112kts
03-Dec-19 08:37 33.296470 -117.482772 316 6018ft 119kts
03-Dec-19 08:38 33.320616 -117.510914 316 6000ft 121kts
03-Dec-19 08:39 33.351100 -117.546473 316 6000ft 121kts
03-Dec-19 08:40 33.380798 -117.581150 316 6000ft 121kts
03-Dec-19 08:41 33.412287 -117.617955 316 6000ft 121kts
03-Dec-19 08:41 33.432362 -117.641440 316 6000ft 121kts
03-Dec-19 08:43 33.467996 -117.683153 315 6000ft 122kts
03-Dec-19 08:43 33.493754 -117.713382 315 5999ft 124kts
03-Dec-19 08:44 33.520398 -117.743109 339 5993ft 123kts
03-Dec-19 08:46 33.559669 -117.751570 351 5673ft 126kts
03-Dec-19 08:46 33.597820 -117.759018 351 5183ft 127kts
03-Dec-19 08:47 33.632710 -117.765578 351 4779ft 126kts
03-Dec-19 08:49 33.678653 -117.774238 351 4284ft 124kts
03-Dec-19 08:50 33.712792 -117.780436 358 4000ft 118kts
03-Dec-19 08:50 33.741131 -117.779963 1 3649ft 123kts
03-Dec-19 08:51 33.775463 -117.779102 1 3240ft 122kts
03-Dec-19 08:52 33.809234 -117.778208 1 2999ft 117kts
03-Dec-19 08:53 33.841542 -117.773119 11 2999ft 120kts
03-Dec-19 08:54 33.874914 -117.765016 11 2998ft 123kts
03-Dec-19 08:55 33.904872 -117.751047 338 2996ft 123kts
03-Dec-19 08:56 33.899607 -117.784388 224 2996ft 126kts
03-Dec-19 08:57 33.869128 -117.803290 195 2807ft 122kts
03-Dec-19 08:58 33.838398 -117.813347 193 2796ft 110kts
03-Dec-19 08:59 33.809317 -117.822523 194 2604ft 106kts
03-Dec-19 09:00 33.780421 -117.831618 194 2047ft 107kts
03-Dec-19 09:01 33.752372 -117.840901 195 1688ft 103kts
03-Dec-19 09:02 33.724347 -117.849869 195 1148ft 105kts
03-Dec-19 09:03 33.696750 -117.858927 196 572ft 100kts
03-Dec-19 09:04 33.676154 -117.868583 208 49ft 37kts
03-Dec-19 09:05 33.676392 -117.870488 115 49ft 0kts
03-Dec-19 09:06 33.676392 -117.870487 115 49ft 0kts
03-Dec-19 09:07 33.676392 -117.870487 115 49ft 0kts

Navigation Log

Ident Type
Flight plan parsing failed, navigation log unavailable